sensor_id;sensor_type;location;lat;lon;timestamp;temperature;humidity
21861;DHT22;11095;48.066;8.540;2023-02-04T00:01:32;3.80;99.90
21861;DHT22;11095;48.066;8.540;2023-02-04T00:03:58;3.80;99.90
21861;DHT22;11095;48.066;8.540;2023-02-04T00:06:24;3.80;99.90
21861;DHT22;11095;48.066;8.540;2023-02-04T00:08:50;3.80;99.90
21861;DHT22;11095;48.066;8.540;2023-02-04T00:11:16;3.80;99.90
21861;DHT22;11095;48.066;8.540;2023-02-04T00:13:41;3.80;99.90
21861;DHT22;11095;48.066;8.540;2023-02-04T00:16:07;3.80;99.90
21861;DHT22;11095;48.066;8.540;2023-02-04T00:18:33;3.90;99.90
21861;DHT22;11095;48.066;8.540;2023-02-04T00:20:59;3.90;99.90
21861;DHT22;11095;48.066;8.540;2023-02-04T00:23:24;3.90;99.90
21861;DHT22;11095;48.066;8.540;2023-02-04T00:25:50;3.90;99.90
21861;DHT22;11095;48.066;8.540;2023-02-04T00:28:15;3.90;99.90
21861;DHT22;11095;48.066;8.540;2023-02-04T00:30:41;3.90;99.90
21861;DHT22;11095;48.066;8.540;2023-02-04T00:33:07;3.90;99.90
21861;DHT22;11095;48.066;8.540;2023-02-04T00:35:33;3.90;99.90
21861;DHT22;11095;48.066;8.540;2023-02-04T00:37:58;3.90;99.90
21861;DHT22;11095;48.066;8.540;2023-02-04T00:40:24;3.90;99.90
21861;DHT22;11095;48.066;8.540;2023-02-04T00:42:50;3.90;99.90
21861;DHT22;11095;48.066;8.540;2023-02-04T00:45:15;3.90;99.90
21861;DHT22;11095;48.066;8.540;2023-02-04T00:47:41;3.90;99.90
21861;DHT22;11095;48.066;8.540;2023-02-04T00:50:07;3.90;99.90
21861;DHT22;11095;48.066;8.540;2023-02-04T00:52:32;4.00;99.90
21861;DHT22;11095;48.066;8.540;2023-02-04T00:54:58;4.00;99.90
21861;DHT22;11095;48.066;8.540;2023-02-04T00:57:24;4.00;99.90
21861;DHT22;11095;48.066;8.540;2023-02-04T00:59:49;4.00;99.90
21861;DHT22;11095;48.066;8.540;2023-02-04T01:02:15;4.00;99.90
21861;DHT22;11095;48.066;8.540;2023-02-04T01:04:40;4.00;99.90
21861;DHT22;11095;48.066;8.540;2023-02-04T01:07:06;4.00;99.90
21861;DHT22;11095;48.066;8.540;2023-02-04T01:09:31;4.10;99.90
21861;DHT22;11095;48.066;8.540;2023-02-04T01:11:58;4.10;99.90
21861;DHT22;11095;48.066;8.540;2023-02-04T01:14:23;4.10;99.90
21861;DHT22;11095;48.066;8.540;2023-02-04T01:16:49;4.10;99.90
21861;DHT22;11095;48.066;8.540;2023-02-04T01:19:15;4.10;99.90
21861;DHT22;11095;48.066;8.540;2023-02-04T01:21:40;4.10;99.90
21861;DHT22;11095;48.066;8.540;2023-02-04T01:24:06;4.10;99.90
21861;DHT22;11095;48.066;8.540;2023-02-04T01:26:32;4.10;99.90
21861;DHT22;11095;48.066;8.540;2023-02-04T01:28:58;4.10;99.90
21861;DHT22;11095;48.066;8.540;2023-02-04T01:31:23;4.10;99.90
21861;DHT22;11095;48.066;8.540;2023-02-04T01:33:49;4.10;99.90
21861;DHT22;11095;48.066;8.540;2023-02-04T01:36:15;4.10;99.90
21861;DHT22;11095;48.066;8.540;2023-02-04T01:38:46;4.10;99.90
21861;DHT22;11095;48.066;8.540;2023-02-04T01:41:12;4.10;99.90
21861;DHT22;11095;48.066;8.540;2023-02-04T01:43:38;4.10;99.90
21861;DHT22;11095;48.066;8.540;2023-02-04T01:46:04;4.10;99.90
21861;DHT22;11095;48.066;8.540;2023-02-04T01:48:30;4.20;99.90
21861;DHT22;11095;48.066;8.540;2023-02-04T01:51:07;4.20;99.90
21861;DHT22;11095;48.066;8.540;2023-02-04T01:53:34;4.20;99.90
21861;DHT22;11095;48.066;8.540;2023-02-04T01:56:01;4.20;99.90
21861;DHT22;11095;48.066;8.540;2023-02-04T01:58:29;4.30;99.90
21861;DHT22;11095;48.066;8.540;2023-02-04T02:00:56;4.20;99.90
21861;DHT22;11095;48.066;8.540;2023-02-04T02:03:22;4.20;99.90
21861;DHT22;11095;48.066;8.540;2023-02-04T02:05:50;4.30;99.90
21861;DHT22;11095;48.066;8.540;2023-02-04T02:08:17;4.20;99.90
21861;DHT22;11095;48.066;8.540;2023-02-04T02:10:44;4.30;99.90
21861;DHT22;11095;48.066;8.540;2023-02-04T02:13:13;4.30;99.90
21861;DHT22;11095;48.066;8.540;2023-02-04T02:15:40;4.30;99.90
21861;DHT22;11095;48.066;8.540;2023-02-04T02:18:06;4.30;99.90
21861;DHT22;11095;48.066;8.540;2023-02-04T02:20:32;4.30;99.90
21861;DHT22;11095;48.066;8.540;2023-02-04T02:25:29;4.30;99.90
21861;DHT22;11095;48.066;8.540;2023-02-04T02:27:55;4.30;99.90
21861;DHT22;11095;48.066;8.540;2023-02-04T02:30:21;4.30;99.90
21861;DHT22;11095;48.066;8.540;2023-02-04T02:32:48;4.30;99.90
21861;DHT22;11095;48.066;8.540;2023-02-04T02:35:15;4.20;99.90
21861;DHT22;11095;48.066;8.540;2023-02-04T02:37:41;4.20;99.90
21861;DHT22;11095;48.066;8.540;2023-02-04T02:40:07;4.20;99.90
21861;DHT22;11095;48.066;8.540;2023-02-04T02:42:34;4.20;99.90
21861;DHT22;11095;48.066;8.540;2023-02-04T02:45:12;4.20;99.90
21861;DHT22;11095;48.066;8.540;2023-02-04T02:47:40;4.20;99.90
21861;DHT22;11095;48.066;8.540;2023-02-04T02:50:08;4.20;99.90
21861;DHT22;11095;48.066;8.540;2023-02-04T02:52:37;4.20;99.90
21861;DHT22;11095;48.066;8.540;2023-02-04T02:55:03;4.20;99.90
21861;DHT22;11095;48.066;8.540;2023-02-04T02:57:28;4.20;99.90
21861;DHT22;11095;48.066;8.540;2023-02-04T02:59:54;4.20;99.90
21861;DHT22;11095;48.066;8.540;2023-02-04T03:02:21;4.30;99.90
21861;DHT22;11095;48.066;8.540;2023-02-04T03:04:54;4.30;99.90
21861;DHT22;11095;48.066;8.540;2023-02-04T03:07:21;4.30;99.90
21861;DHT22;11095;48.066;8.540;2023-02-04T03:09:47;4.30;99.90
21861;DHT22;11095;48.066;8.540;2023-02-04T03:12:13;4.30;99.90
21861;DHT22;11095;48.066;8.540;2023-02-04T03:14:39;4.30;99.90
21861;DHT22;11095;48.066;8.540;2023-02-04T03:17:06;4.30;99.90
21861;DHT22;11095;48.066;8.540;2023-02-04T03:19:33;4.30;99.90
21861;DHT22;11095;48.066;8.540;2023-02-04T03:22:01;4.40;99.90
21861;DHT22;11095;48.066;8.540;2023-02-04T03:24:28;4.40;99.90
21861;DHT22;11095;48.066;8.540;2023-02-04T03:26:54;4.40;99.90
21861;DHT22;11095;48.066;8.540;2023-02-04T03:29:20;4.40;99.90
21861;DHT22;11095;48.066;8.540;2023-02-04T03:31:45;4.40;99.90
21861;DHT22;11095;48.066;8.540;2023-02-04T03:34:11;4.40;99.90
21861;DHT22;11095;48.066;8.540;2023-02-04T03:36:37;4.50;99.90
21861;DHT22;11095;48.066;8.540;2023-02-04T03:39:03;4.50;99.90
21861;DHT22;11095;48.066;8.540;2023-02-04T03:41:29;4.50;99.90
21861;DHT22;11095;48.066;8.540;2023-02-04T03:43:54;4.50;99.90
21861;DHT22;11095;48.066;8.540;2023-02-04T03:46:20;4.50;99.90
21861;DHT22;11095;48.066;8.540;2023-02-04T03:48:48;4.50;99.90
21861;DHT22;11095;48.066;8.540;2023-02-04T03:51:13;4.50;99.90
21861;DHT22;11095;48.066;8.540;2023-02-04T03:53:39;4.50;99.90
21861;DHT22;11095;48.066;8.540;2023-02-04T03:56:05;4.50;99.90
21861;DHT22;11095;48.066;8.540;2023-02-04T03:58:30;4.50;99.90
21861;DHT22;11095;48.066;8.540;2023-02-04T04:00:56;4.50;99.90
21861;DHT22;11095;48.066;8.540;2023-02-04T04:03:22;4.50;99.90
21861;DHT22;11095;48.066;8.540;2023-02-04T04:05:47;4.50;99.90
21861;DHT22;11095;48.066;8.540;2023-02-04T04:08:13;4.50;99.90
21861;DHT22;11095;48.066;8.540;2023-02-04T04:10:38;4.50;99.90
21861;DHT22;11095;48.066;8.540;2023-02-04T04:13:04;4.50;99.90
21861;DHT22;11095;48.066;8.540;2023-02-04T04:15:30;4.50;99.90
21861;DHT22;11095;48.066;8.540;2023-02-04T04:17:56;4.50;99.90
21861;DHT22;11095;48.066;8.540;2023-02-04T04:20:21;4.50;99.90
21861;DHT22;11095;48.066;8.540;2023-02-04T04:22:50;4.50;99.90
21861;DHT22;11095;48.066;8.540;2023-02-04T04:25:16;4.50;99.90
21861;DHT22;11095;48.066;8.540;2023-02-04T04:27:42;4.60;99.90
21861;DHT22;11095;48.066;8.540;2023-02-04T04:30:08;4.60;99.90
21861;DHT22;11095;48.066;8.540;2023-02-04T04:32:34;4.50;99.90
21861;DHT22;11095;48.066;8.540;2023-02-04T04:35:00;4.60;99.90
21861;DHT22;11095;48.066;8.540;2023-02-04T04:37:25;4.60;99.90
21861;DHT22;11095;48.066;8.540;2023-02-04T04:39:51;4.60;99.90
21861;DHT22;11095;48.066;8.540;2023-02-04T04:42:17;4.60;99.90
21861;DHT22;11095;48.066;8.540;2023-02-04T04:44:43;4.60;99.90
21861;DHT22;11095;48.066;8.540;2023-02-04T04:47:09;4.60;99.90
21861;DHT22;11095;48.066;8.540;2023-02-04T04:49:34;4.60;99.90
21861;DHT22;11095;48.066;8.540;2023-02-04T04:52:00;4.60;99.90
21861;DHT22;11095;48.066;8.540;2023-02-04T04:54:25;4.60;99.90
21861;DHT22;11095;48.066;8.540;2023-02-04T04:56:51;4.60;99.90
21861;DHT22;11095;48.066;8.540;2023-02-04T04:59:16;4.60;99.90
21861;DHT22;11095;48.066;8.540;2023-02-04T05:01:42;4.60;99.90
21861;DHT22;11095;48.066;8.540;2023-02-04T05:04:08;4.60;99.90
21861;DHT22;11095;48.066;8.540;2023-02-04T05:06:33;4.50;99.90
21861;DHT22;11095;48.066;8.540;2023-02-04T05:08:59;4.60;99.90
21861;DHT22;11095;48.066;8.540;2023-02-04T05:11:24;4.50;99.90
21861;DHT22;11095;48.066;8.540;2023-02-04T05:13:50;4.50;99.90
21861;DHT22;11095;48.066;8.540;2023-02-04T05:16:16;4.50;99.90
21861;DHT22;11095;48.066;8.540;2023-02-04T05:18:42;4.50;99.90
21861;DHT22;11095;48.066;8.540;2023-02-04T05:21:08;4.40;99.90
21861;DHT22;11095;48.066;8.540;2023-02-04T05:23:34;4.40;99.90
21861;DHT22;11095;48.066;8.540;2023-02-04T05:25:59;4.40;99.90
21861;DHT22;11095;48.066;8.540;2023-02-04T05:28:25;4.40;99.90
21861;DHT22;11095;48.066;8.540;2023-02-04T05:30:51;4.40;99.90
21861;DHT22;11095;48.066;8.540;2023-02-04T05:33:16;4.40;99.90
21861;DHT22;11095;48.066;8.540;2023-02-04T05:35:42;4.40;99.90
21861;DHT22;11095;48.066;8.540;2023-02-04T05:38:07;4.30;99.90
21861;DHT22;11095;48.066;8.540;2023-02-04T05:40:33;4.30;99.90
21861;DHT22;11095;48.066;8.540;2023-02-04T05:42:59;4.30;99.90
21861;DHT22;11095;48.066;8.540;2023-02-04T05:45:24;4.30;99.90
21861;DHT22;11095;48.066;8.540;2023-02-04T05:47:50;4.30;99.90
21861;DHT22;11095;48.066;8.540;2023-02-04T05:50:15;4.30;99.90
21861;DHT22;11095;48.066;8.540;2023-02-04T05:52:41;4.30;99.90
21861;DHT22;11095;48.066;8.540;2023-02-04T05:55:08;4.30;99.90
21861;DHT22;11095;48.066;8.540;2023-02-04T05:57:35;4.30;99.90
21861;DHT22;11095;48.066;8.540;2023-02-04T06:00:00;4.30;99.90
21861;DHT22;11095;48.066;8.540;2023-02-04T06:02:26;4.30;99.90
21861;DHT22;11095;48.066;8.540;2023-02-04T06:04:51;4.30;99.90
21861;DHT22;11095;48.066;8.540;2023-02-04T06:07:17;4.30;99.90
21861;DHT22;11095;48.066;8.540;2023-02-04T06:09:43;4.30;99.90
21861;DHT22;11095;48.066;8.540;2023-02-04T06:12:09;4.30;99.90
21861;DHT22;11095;48.066;8.540;2023-02-04T06:14:35;4.30;99.90
21861;DHT22;11095;48.066;8.540;2023-02-04T06:17:00;4.40;99.90
21861;DHT22;11095;48.066;8.540;2023-02-04T06:19:26;4.30;99.90
21861;DHT22;11095;48.066;8.540;2023-02-04T06:21:52;4.40;99.90
21861;DHT22;11095;48.066;8.540;2023-02-04T06:24:17;4.40;99.90
21861;DHT22;11095;48.066;8.540;2023-02-04T06:26:43;4.30;99.90
21861;DHT22;11095;48.066;8.540;2023-02-04T06:29:09;4.40;99.90
21861;DHT22;11095;48.066;8.540;2023-02-04T06:31:34;4.40;99.90
21861;DHT22;11095;48.066;8.540;2023-02-04T06:34:03;4.40;99.90
21861;DHT22;11095;48.066;8.540;2023-02-04T06:36:29;4.40;99.90
21861;DHT22;11095;48.066;8.540;2023-02-04T06:38:55;4.40;99.90
21861;DHT22;11095;48.066;8.540;2023-02-04T06:41:20;4.40;99.90
21861;DHT22;11095;48.066;8.540;2023-02-04T06:43:46;4.40;99.90
21861;DHT22;11095;48.066;8.540;2023-02-04T06:46:11;4.40;99.90
21861;DHT22;11095;48.066;8.540;2023-02-04T06:48:37;4.30;99.90
21861;DHT22;11095;48.066;8.540;2023-02-04T06:51:03;4.40;99.90
21861;DHT22;11095;48.066;8.540;2023-02-04T06:53:28;4.40;99.90
21861;DHT22;11095;48.066;8.540;2023-02-04T06:55:54;4.40;99.90
21861;DHT22;11095;48.066;8.540;2023-02-04T06:58:20;4.40;99.90
21861;DHT22;11095;48.066;8.540;2023-02-04T07:00:45;4.40;99.90
21861;DHT22;11095;48.066;8.540;2023-02-04T07:03:11;4.40;99.90
21861;DHT22;11095;48.066;8.540;2023-02-04T07:05:36;4.40;99.90
21861;DHT22;11095;48.066;8.540;2023-02-04T07:08:02;4.40;99.90
21861;DHT22;11095;48.066;8.540;2023-02-04T07:10:28;4.40;99.90
21861;DHT22;11095;48.066;8.540;2023-02-04T07:12:53;4.40;99.90
21861;DHT22;11095;48.066;8.540;2023-02-04T07:15:19;4.40;99.90
21861;DHT22;11095;48.066;8.540;2023-02-04T07:17:44;4.40;99.90
21861;DHT22;11095;48.066;8.540;2023-02-04T07:20:10;4.40;99.90
21861;DHT22;11095;48.066;8.540;2023-02-04T07:22:36;4.30;99.90
21861;DHT22;11095;48.066;8.540;2023-02-04T07:25:02;4.30;99.90
21861;DHT22;11095;48.066;8.540;2023-02-04T07:27:28;4.20;99.90
21861;DHT22;11095;48.066;8.540;2023-02-04T07:29:53;4.20;99.90
21861;DHT22;11095;48.066;8.540;2023-02-04T07:32:19;4.20;99.90
21861;DHT22;11095;48.066;8.540;2023-02-04T07:34:45;4.10;99.90
21861;DHT22;11095;48.066;8.540;2023-02-04T07:37:10;4.10;99.90
21861;DHT22;11095;48.066;8.540;2023-02-04T07:39:36;4.10;99.90
21861;DHT22;11095;48.066;8.540;2023-02-04T07:42:01;4.00;99.90
21861;DHT22;11095;48.066;8.540;2023-02-04T07:44:27;4.10;99.90
21861;DHT22;11095;48.066;8.540;2023-02-04T07:46:53;4.10;99.90
21861;DHT22;11095;48.066;8.540;2023-02-04T07:49:18;4.10;99.90
21861;DHT22;11095;48.066;8.540;2023-02-04T07:51:44;4.10;99.90
21861;DHT22;11095;48.066;8.540;2023-02-04T07:54:09;4.10;99.90
21861;DHT22;11095;48.066;8.540;2023-02-04T07:56:35;4.10;99.90
21861;DHT22;11095;48.066;8.540;2023-02-04T07:59:01;4.10;99.90
21861;DHT22;11095;48.066;8.540;2023-02-04T08:01:26;4.00;99.90
21861;DHT22;11095;48.066;8.540;2023-02-04T08:03:52;4.00;99.90
21861;DHT22;11095;48.066;8.540;2023-02-04T08:06:18;3.90;99.90
21861;DHT22;11095;48.066;8.540;2023-02-04T08:08:43;3.70;99.90
21861;DHT22;11095;48.066;8.540;2023-02-04T08:11:09;3.60;99.90
21861;DHT22;11095;48.066;8.540;2023-02-04T08:13:34;3.50;99.90
21861;DHT22;11095;48.066;8.540;2023-02-04T08:16:00;3.40;99.90
21861;DHT22;11095;48.066;8.540;2023-02-04T08:18:26;3.40;99.90
21861;DHT22;11095;48.066;8.540;2023-02-04T08:20:51;3.40;99.90
21861;DHT22;11095;48.066;8.540;2023-02-04T08:23:17;3.40;99.90
21861;DHT22;11095;48.066;8.540;2023-02-04T08:25:43;3.40;99.90
21861;DHT22;11095;48.066;8.540;2023-02-04T08:28:10;3.30;99.90
21861;DHT22;11095;48.066;8.540;2023-02-04T08:30:35;3.30;99.90
21861;DHT22;11095;48.066;8.540;2023-02-04T08:33:01;3.20;99.90
21861;DHT22;11095;48.066;8.540;2023-02-04T08:35:27;3.10;99.90
21861;DHT22;11095;48.066;8.540;2023-02-04T08:37:52;3.10;99.90
21861;DHT22;11095;48.066;8.540;2023-02-04T08:40:18;3.00;99.90
21861;DHT22;11095;48.066;8.540;2023-02-04T08:42:44;2.80;99.90
21861;DHT22;11095;48.066;8.540;2023-02-04T08:45:09;2.70;99.90
21861;DHT22;11095;48.066;8.540;2023-02-04T08:47:35;2.70;99.90
21861;DHT22;11095;48.066;8.540;2023-02-04T08:50:00;2.70;99.90
21861;DHT22;11095;48.066;8.540;2023-02-04T08:52:26;2.70;99.90
21861;DHT22;11095;48.066;8.540;2023-02-04T08:54:52;2.70;99.90
21861;DHT22;11095;48.066;8.540;2023-02-04T08:57:17;2.70;99.90
21861;DHT22;11095;48.066;8.540;2023-02-04T08:59:43;2.70;99.90
21861;DHT22;11095;48.066;8.540;2023-02-04T09:02:10;2.60;99.90
21861;DHT22;11095;48.066;8.540;2023-02-04T09:04:35;2.60;99.90
21861;DHT22;11095;48.066;8.540;2023-02-04T09:07:01;2.60;99.90
21861;DHT22;11095;48.066;8.540;2023-02-04T09:09:27;2.70;99.90
21861;DHT22;11095;48.066;8.540;2023-02-04T09:11:52;2.70;99.90
21861;DHT22;11095;48.066;8.540;2023-02-04T09:14:18;2.80;99.90
21861;DHT22;11095;48.066;8.540;2023-02-04T09:16:44;2.90;99.90
21861;DHT22;11095;48.066;8.540;2023-02-04T09:19:09;3.00;99.90
21861;DHT22;11095;48.066;8.540;2023-02-04T09:21:37;3.10;99.90
21861;DHT22;11095;48.066;8.540;2023-02-04T09:24:03;3.30;99.90
21861;DHT22;11095;48.066;8.540;2023-02-04T09:26:28;3.40;99.90
21861;DHT22;11095;48.066;8.540;2023-02-04T09:28:54;3.40;99.90
21861;DHT22;11095;48.066;8.540;2023-02-04T09:31:20;3.50;99.90
21861;DHT22;11095;48.066;8.540;2023-02-04T09:33:46;3.50;99.90
21861;DHT22;11095;48.066;8.540;2023-02-04T09:36:11;3.70;99.90
21861;DHT22;11095;48.066;8.540;2023-02-04T09:38:37;3.80;99.90
21861;DHT22;11095;48.066;8.540;2023-02-04T09:41:06;3.90;99.90
21861;DHT22;11095;48.066;8.540;2023-02-04T09:43:39;3.90;99.90
21861;DHT22;11095;48.066;8.540;2023-02-04T09:46:09;3.90;99.90
21861;DHT22;11095;48.066;8.540;2023-02-04T09:48:40;4.00;99.90
21861;DHT22;11095;48.066;8.540;2023-02-04T09:51:07;4.00;99.90
21861;DHT22;11095;48.066;8.540;2023-02-04T09:53:33;4.10;99.90
21861;DHT22;11095;48.066;8.540;2023-02-04T09:55:59;4.20;99.90
21861;DHT22;11095;48.066;8.540;2023-02-04T09:58:29;4.30;99.90
21861;DHT22;11095;48.066;8.540;2023-02-04T10:01:15;4.30;99.90
21861;DHT22;11095;48.066;8.540;2023-02-04T10:03:43;4.20;99.90
21861;DHT22;11095;48.066;8.540;2023-02-04T10:06:18;4.10;99.90
21861;DHT22;11095;48.066;8.540;2023-02-04T10:08:46;4.00;99.90
21861;DHT22;11095;48.066;8.540;2023-02-04T10:11:14;3.90;99.90
21861;DHT22;11095;48.066;8.540;2023-02-04T10:13:49;4.00;99.90
21861;DHT22;11095;48.066;8.540;2023-02-04T10:16:20;3.90;99.90
21861;DHT22;11095;48.066;8.540;2023-02-04T10:18:46;3.90;99.90
21861;DHT22;11095;48.066;8.540;2023-02-04T10:21:20;3.90;99.90
21861;DHT22;11095;48.066;8.540;2023-02-04T10:23:50;3.80;99.90
21861;DHT22;11095;48.066;8.540;2023-02-04T10:26:16;3.80;99.90
21861;DHT22;11095;48.066;8.540;2023-02-04T10:28:43;3.70;99.90
21861;DHT22;11095;48.066;8.540;2023-02-04T10:31:29;3.70;99.90
21861;DHT22;11095;48.066;8.540;2023-02-04T10:34:16;3.60;99.90
21861;DHT22;11095;48.066;8.540;2023-02-04T10:36:44;3.70;99.90
21861;DHT22;11095;48.066;8.540;2023-02-04T10:39:28;3.80;99.90
21861;DHT22;11095;48.066;8.540;2023-02-04T10:41:59;3.80;99.90
21861;DHT22;11095;48.066;8.540;2023-02-04T10:44:32;3.80;99.90
21861;DHT22;11095;48.066;8.540;2023-02-04T10:47:19;3.90;99.90
21861;DHT22;11095;48.066;8.540;2023-02-04T10:50:00;3.90;99.90
21861;DHT22;11095;48.066;8.540;2023-02-04T10:52:38;4.00;99.90
21861;DHT22;11095;48.066;8.540;2023-02-04T10:55:07;4.10;99.90
21861;DHT22;11095;48.066;8.540;2023-02-04T10:57:40;4.00;99.90
21861;DHT22;11095;48.066;8.540;2023-02-04T11:00:14;3.90;99.90
21861;DHT22;11095;48.066;8.540;2023-02-04T11:02:43;4.00;99.90
21861;DHT22;11095;48.066;8.540;2023-02-04T11:05:15;4.20;99.90
21861;DHT22;11095;48.066;8.540;2023-02-04T11:07:42;4.20;99.90
21861;DHT22;11095;48.066;8.540;2023-02-04T11:10:14;4.30;99.90
21861;DHT22;11095;48.066;8.540;2023-02-04T11:12:43;4.30;99.90
21861;DHT22;11095;48.066;8.540;2023-02-04T11:15:46;4.40;99.90
21861;DHT22;11095;48.066;8.540;2023-02-04T11:20:45;4.90;99.90
21861;DHT22;11095;48.066;8.540;2023-02-04T11:26:08;4.80;99.90
21861;DHT22;11095;48.066;8.540;2023-02-04T11:31:22;4.40;99.90
21861;DHT22;11095;48.066;8.540;2023-02-04T11:34:09;4.30;99.90
21861;DHT22;11095;48.066;8.540;2023-02-04T11:39:42;4.50;99.90
21861;DHT22;11095;48.066;8.540;2023-02-04T11:43:00;4.50;99.90
21861;DHT22;11095;48.066;8.540;2023-02-04T11:45:36;4.60;99.90
21861;DHT22;11095;48.066;8.540;2023-02-04T11:48:10;4.40;99.90
21861;DHT22;11095;48.066;8.540;2023-02-04T11:50:36;4.40;99.90
21861;DHT22;11095;48.066;8.540;2023-02-04T11:53:09;4.50;99.90
21861;DHT22;11095;48.066;8.540;2023-02-04T11:55:45;4.60;99.90
21861;DHT22;11095;48.066;8.540;2023-02-04T11:58:14;4.70;99.90
21861;DHT22;11095;48.066;8.540;2023-02-04T12:00:40;4.60;99.90
21861;DHT22;11095;48.066;8.540;2023-02-04T12:03:21;4.50;99.90
21861;DHT22;11095;48.066;8.540;2023-02-04T12:05:48;4.30;99.90
21861;DHT22;11095;48.066;8.540;2023-02-04T12:10:49;4.00;99.90
21861;DHT22;11095;48.066;8.540;2023-02-04T12:13:18;3.90;99.90
21861;DHT22;11095;48.066;8.540;2023-02-04T12:16:05;3.90;99.90
21861;DHT22;11095;48.066;8.540;2023-02-04T12:18:33;4.10;99.90
21861;DHT22;11095;48.066;8.540;2023-02-04T12:21:00;4.10;99.90
21861;DHT22;11095;48.066;8.540;2023-02-04T12:23:27;4.10;99.90
21861;DHT22;11095;48.066;8.540;2023-02-04T12:25:54;4.20;99.90
21861;DHT22;11095;48.066;8.540;2023-02-04T12:28:20;4.20;99.90
21861;DHT22;11095;48.066;8.540;2023-02-04T12:30:46;4.20;99.90
21861;DHT22;11095;48.066;8.540;2023-02-04T12:33:11;4.20;99.90
21861;DHT22;11095;48.066;8.540;2023-02-04T12:35:37;4.10;99.90
21861;DHT22;11095;48.066;8.540;2023-02-04T12:38:03;4.10;99.90
21861;DHT22;11095;48.066;8.540;2023-02-04T12:40:29;4.10;99.90
21861;DHT22;11095;48.066;8.540;2023-02-04T12:42:54;4.10;99.90
21861;DHT22;11095;48.066;8.540;2023-02-04T12:45:20;4.20;99.90
21861;DHT22;11095;48.066;8.540;2023-02-04T12:47:46;4.10;99.90
21861;DHT22;11095;48.066;8.540;2023-02-04T12:50:14;4.10;99.90
21861;DHT22;11095;48.066;8.540;2023-02-04T12:52:50;4.10;99.90
21861;DHT22;11095;48.066;8.540;2023-02-04T12:55:16;4.20;99.90
21861;DHT22;11095;48.066;8.540;2023-02-04T12:57:42;4.30;99.90
21861;DHT22;11095;48.066;8.540;2023-02-04T13:00:08;4.30;99.90
21861;DHT22;11095;48.066;8.540;2023-02-04T13:02:34;4.20;99.90
21861;DHT22;11095;48.066;8.540;2023-02-04T13:04:59;4.20;99.90
21861;DHT22;11095;48.066;8.540;2023-02-04T13:07:25;4.10;99.90
21861;DHT22;11095;48.066;8.540;2023-02-04T13:09:50;4.10;99.90
21861;DHT22;11095;48.066;8.540;2023-02-04T13:12:17;4.10;99.90
21861;DHT22;11095;48.066;8.540;2023-02-04T13:14:43;4.10;99.90
21861;DHT22;11095;48.066;8.540;2023-02-04T13:17:09;4.20;99.90
21861;DHT22;11095;48.066;8.540;2023-02-04T13:19:35;4.20;99.90
21861;DHT22;11095;48.066;8.540;2023-02-04T13:22:00;4.20;99.90
21861;DHT22;11095;48.066;8.540;2023-02-04T13:24:27;4.30;99.90
21861;DHT22;11095;48.066;8.540;2023-02-04T13:26:53;4.30;99.90
21861;DHT22;11095;48.066;8.540;2023-02-04T13:29:19;4.30;99.90
21861;DHT22;11095;48.066;8.540;2023-02-04T13:31:46;4.40;99.90
21861;DHT22;11095;48.066;8.540;2023-02-04T13:34:12;4.50;99.90
21861;DHT22;11095;48.066;8.540;2023-02-04T13:36:37;4.60;99.90
21861;DHT22;11095;48.066;8.540;2023-02-04T13:39:03;4.60;99.90
21861;DHT22;11095;48.066;8.540;2023-02-04T13:41:29;4.70;99.90
21861;DHT22;11095;48.066;8.540;2023-02-04T13:43:55;4.80;99.90
21861;DHT22;11095;48.066;8.540;2023-02-04T13:46:22;5.00;99.90
21861;DHT22;11095;48.066;8.540;2023-02-04T13:48:47;5.00;99.90
21861;DHT22;11095;48.066;8.540;2023-02-04T13:51:14;5.30;99.90
21861;DHT22;11095;48.066;8.540;2023-02-04T13:53:40;5.20;99.90
21861;DHT22;11095;48.066;8.540;2023-02-04T13:56:06;5.10;99.90
21861;DHT22;11095;48.066;8.540;2023-02-04T13:58:31;5.20;99.90
21861;DHT22;11095;48.066;8.540;2023-02-04T14:00:57;5.30;99.90
21861;DHT22;11095;48.066;8.540;2023-02-04T14:03:24;5.30;99.90
21861;DHT22;11095;48.066;8.540;2023-02-04T14:05:50;5.50;99.90
21861;DHT22;11095;48.066;8.540;2023-02-04T14:08:16;5.50;99.90
21861;DHT22;11095;48.066;8.540;2023-02-04T14:10:41;5.30;99.90
21861;DHT22;11095;48.066;8.540;2023-02-04T14:13:07;5.30;99.90
21861;DHT22;11095;48.066;8.540;2023-02-04T14:15:33;5.40;99.90
21861;DHT22;11095;48.066;8.540;2023-02-04T14:17:59;5.40;99.90
21861;DHT22;11095;48.066;8.540;2023-02-04T14:20:25;5.30;99.90
21861;DHT22;11095;48.066;8.540;2023-02-04T14:22:51;5.30;99.90
21861;DHT22;11095;48.066;8.540;2023-02-04T14:25:17;5.10;99.90
21861;DHT22;11095;48.066;8.540;2023-02-04T14:27:43;5.20;99.90
21861;DHT22;11095;48.066;8.540;2023-02-04T14:30:16;5.40;99.90
21861;DHT22;11095;48.066;8.540;2023-02-04T14:32:42;5.40;99.90
21861;DHT22;11095;48.066;8.540;2023-02-04T14:35:08;5.20;99.90
21861;DHT22;11095;48.066;8.540;2023-02-04T14:37:33;5.20;99.90
21861;DHT22;11095;48.066;8.540;2023-02-04T14:39:59;4.90;99.90
21861;DHT22;11095;48.066;8.540;2023-02-04T14:42:24;4.90;99.90
21861;DHT22;11095;48.066;8.540;2023-02-04T14:44:50;4.90;99.90
21861;DHT22;11095;48.066;8.540;2023-02-04T14:47:16;5.00;99.90
21861;DHT22;11095;48.066;8.540;2023-02-04T14:49:42;5.00;99.90
21861;DHT22;11095;48.066;8.540;2023-02-04T14:52:07;5.10;99.90
21861;DHT22;11095;48.066;8.540;2023-02-04T14:54:35;5.00;99.90
21861;DHT22;11095;48.066;8.540;2023-02-04T14:57:01;4.80;99.90
21861;DHT22;11095;48.066;8.540;2023-02-04T14:59:26;4.80;99.90
21861;DHT22;11095;48.066;8.540;2023-02-04T15:01:53;4.80;99.90
21861;DHT22;11095;48.066;8.540;2023-02-04T15:04:18;4.80;99.90
21861;DHT22;11095;48.066;8.540;2023-02-04T15:06:44;4.80;99.90
21861;DHT22;11095;48.066;8.540;2023-02-04T15:09:11;4.60;99.90
21861;DHT22;11095;48.066;8.540;2023-02-04T15:11:36;4.50;99.90
21861;DHT22;11095;48.066;8.540;2023-02-04T15:14:02;4.40;99.90
21861;DHT22;11095;48.066;8.540;2023-02-04T15:16:28;4.30;99.90
21861;DHT22;11095;48.066;8.540;2023-02-04T15:18:54;4.30;99.90
21861;DHT22;11095;48.066;8.540;2023-02-04T15:21:20;4.30;99.90
21861;DHT22;11095;48.066;8.540;2023-02-04T15:23:45;4.30;99.90
21861;DHT22;11095;48.066;8.540;2023-02-04T15:26:12;4.20;99.90
21861;DHT22;11095;48.066;8.540;2023-02-04T15:28:38;4.20;99.90
21861;DHT22;11095;48.066;8.540;2023-02-04T15:31:04;4.10;99.90
21861;DHT22;11095;48.066;8.540;2023-02-04T15:33:30;4.20;99.90
21861;DHT22;11095;48.066;8.540;2023-02-04T15:35:55;4.10;99.90
21861;DHT22;11095;48.066;8.540;2023-02-04T15:38:24;4.10;99.90
21861;DHT22;11095;48.066;8.540;2023-02-04T15:40:49;4.10;99.90
21861;DHT22;11095;48.066;8.540;2023-02-04T15:43:15;4.10;99.90
21861;DHT22;11095;48.066;8.540;2023-02-04T15:45:41;4.10;99.90
21861;DHT22;11095;48.066;8.540;2023-02-04T15:48:09;4.10;99.90
21861;DHT22;11095;48.066;8.540;2023-02-04T15:50:35;4.10;99.90
21861;DHT22;11095;48.066;8.540;2023-02-04T15:53:01;4.20;99.90
21861;DHT22;11095;48.066;8.540;2023-02-04T15:55:27;4.20;99.90
21861;DHT22;11095;48.066;8.540;2023-02-04T15:57:52;4.10;99.90
21861;DHT22;11095;48.066;8.540;2023-02-04T16:00:18;4.10;99.90